Terminal Aerodrome Forecast
Issued by NWS Paducah, KY

Home | Current Version | Previous Version | Text Only | Print | Product List | Glossary On
Versions: 1 2 3 4 5 6 7 8 9 10 11 12 13 14 15 16 17 18 19 20 21 22
000
FTUS43 KPAH 301400 AAA
TAFPAH
TAF AMD
KPAH 301455Z 3015/3112 21005KT P6SM VCTS SCT080CB BKN150
      TEMPO 3015/3017 2SM +TSRA BR BKN035CB
     FM301700 20007KT 6SM -SHRA BR VCTS SCT035CB OVC050
     FM310200 18004KT 4SM BR OVC020
     FM310800 18003KT 4SM BR OVC007=

USA.gov is the U.S. government's official web portal to all federal, state and local government web resources and services.